Time;durP1;ratioP1;P1;durP2;ratioP2;P2;SDS_P1;SDS_P2;PMS_P1;PMS_P2;Temp;Humidity;BMP_temperature;BMP_pressure;BME280_temperature;BME280_humidity;BME280_pressure;Samples;Min_cycle;Max_cycle;Signal;HPM_P1;HPM_P2
2022/11/15 00:00:26;;;;;;;1.83;0.57;;;;;;;1.83;40.92;100476.81;5034124;28;20124;-49
2022/11/15 00:02:52;;;;;;;5.28;1.02;;;;;;;1.79;40.89;100477.84;5034087;28;20045;-51
2022/11/15 00:05:18;;;;;;;3.13;1.13;;;;;;;1.75;41.09;100475.34;5033758;28;20033;-50
2022/11/15 00:07:43;;;;;;;5.18;0.80;;;;;;;1.71;41.00;100485.16;5033010;28;20037;-52
2022/11/15 00:10:09;;;;;;;2.13;0.70;;;;;;;1.43;41.13;100462.28;5033954;28;20022;-50
2022/11/15 00:12:34;;;;;;;2.88;0.90;;;;;;;1.56;41.47;100474.19;5032954;28;20105;-53
2022/11/15 00:15:00;;;;;;;2.72;0.70;;;;;;;1.55;41.24;100469.81;5052695;28;20108;-51
2022/11/15 00:17:25;;;;;;;1.98;0.60;;;;;;;1.51;41.58;100475.25;5053420;28;20483;-51
2022/11/15 00:19:51;;;;;;;4.07;0.70;;;;;;;1.38;41.41;100469.50;5053122;28;20102;-54
2022/11/15 00:22:16;;;;;;;2.65;0.80;;;;;;;1.37;41.30;100468.66;5053442;28;20078;-52
2022/11/15 00:24:42;;;;;;;2.42;0.90;;;;;;;1.21;41.54;100439.25;5053751;28;20025;-48
2022/11/15 00:27:08;;;;;;;3.90;0.80;;;;;;;1.32;41.84;100461.78;5053532;28;20067;-51
2022/11/15 00:29:33;;;;;;;3.30;0.77;;;;;;;1.29;41.83;100454.81;5053455;28;20036;-52
2022/11/15 00:31:59;;;;;;;1.35;0.60;;;;;;;1.34;41.58;100458.19;5053112;28;20118;-53
2022/11/15 00:34:24;;;;;;;4.05;0.70;;;;;;;1.32;41.61;100454.72;5032331;28;20113;-53
2022/11/15 00:36:49;;;;;;;3.53;0.70;;;;;;;1.36;41.55;100458.13;5040666;28;20044;-49
2022/11/15 00:39:15;;;;;;;2.38;0.50;;;;;;;1.42;41.72;100452.66;5053411;28;20024;-54
2022/11/15 00:41:40;;;;;;;6.45;1.30;;;;;;;1.45;41.50;100452.56;5035767;28;20037;-49
2022/11/15 00:44:06;;;;;;;2.90;0.90;;;;;;;1.35;41.78;100427.38;5033236;28;20120;-49
2022/11/15 00:46:31;;;;;;;1.58;0.70;;;;;;;1.51;40.96;100448.84;5033228;28;20065;-48
2022/11/15 00:48:57;;;;;;;5.15;1.13;;;;;;;1.54;40.81;100443.47;5034174;28;20442;-57
2022/11/15 00:51:22;;;;;;;2.97;0.70;;;;;;;1.51;41.05;100441.81;5034161;28;20095;-53
2022/11/15 00:53:48;;;;;;;2.65;0.63;;;;;;;1.50;41.15;100437.44;5052847;28;20064;-53
2022/11/15 00:56:13;;;;;;;2.40;0.60;;;;;;;1.53;40.87;100437.34;5052940;28;20029;-50
2022/11/15 00:58:39;;;;;;;2.65;0.85;;;;;;;1.45;40.77;100431.47;5053140;28;20024;-52
2022/11/15 01:01:10;;;;;;;1.90;0.50;;;;;;;1.48;41.00;100444.56;5036177;28;20032;-61
2022/11/15 01:03:36;;;;;;;2.90;0.80;;;;;;;1.25;41.07;100401.31;5032826;28;20092;-53
2022/11/15 01:06:02;;;;;;;2.72;0.68;;;;;;;1.39;41.01;100427.25;5033117;28;20033;-52
2022/11/15 01:08:28;;;;;;;3.25;0.50;;;;;;;1.38;41.37;100428.16;5032864;28;20037;-50
2022/11/15 01:10:53;;;;;;;4.15;0.80;;;;;;;1.23;41.14;100402.25;5047774;28;20036;-52
2022/11/15 01:13:19;;;;;;;4.07;1.00;;;;;;;1.40;41.24;100431.59;5052814;28;20374;-52
2022/11/15 01:15:45;;;;;;;1.88;0.88;;;;;;;1.39;41.08;100424.59;5051724;28;20063;-53
2022/11/15 01:18:10;;;;;;;6.07;1.25;;;;;;;1.40;41.20;100423.69;5052883;28;20040;-51
2022/11/15 01:20:41;;;;;;;2.92;0.77;;;;;;;1.35;41.36;100422.09;5053031;28;20029;-59
2022/11/15 01:23:07;;;;;;;3.38;0.73;;;;;;;1.20;41.67;100405.84;5044631;28;20032;-53
2022/11/15 01:25:32;;;;;;;3.95;0.80;;;;;;;1.23;41.64;100418.09;5042932;28;20033;-54
2022/11/15 01:27:58;;;;;;;3.70;0.85;;;;;;;1.20;41.74;100408.50;5052689;28;20070;-49
2022/11/15 01:30:23;;;;;;;2.17;1.00;;;;;;;1.24;42.02;100398.72;5034635;28;20026;-48
2022/11/15 01:32:49;;;;;;;4.82;0.80;;;;;;;1.27;42.13;100395.97;5032406;28;20041;-52
2022/11/15 01:35:14;;;;;;;3.70;0.98;;;;;;;1.29;42.46;100400.31;5032442;28;20033;-50
2022/11/15 01:37:39;;;;;;;3.17;0.95;;;;;;;1.31;42.28;100404.66;5032553;28;20076;-50
2022/11/15 01:40:05;;;;;;;4.03;1.10;;;;;;;1.35;42.77;100403.63;5032742;28;20108;-52
2022/11/15 01:42:31;;;;;;;4.47;0.90;;;;;;;1.29;42.83;100399.41;5032293;28;20096;-48
2022/11/15 01:44:57;;;;;;;3.75;1.00;;;;;;;1.30;42.91;100409.06;5032112;28;20148;-52
2022/11/15 01:47:24;;;;;;;4.25;0.98;;;;;;;1.29;42.87;100399.41;5032187;28;20041;-53
2022/11/15 01:50:10;;;;;;;4.90;0.90;;;;;;;1.34;43.42;100404.56;5050555;28;20033;-49
2022/11/15 01:52:38;;;;;;;6.47;1.27;;;;;;;1.27;42.86;100404.75;5042818;28;20045;-53
2022/11/15 01:55:10;;;;;;;3.42;0.98;;;;;;;1.33;42.99;100408.09;5032343;28;20052;-54
2022/11/15 01:57:36;;;;;;;2.17;0.95;;;;;;;1.33;42.85;100392.28;5032643;28;20029;-51
2022/11/15 02:00:04;;;;;;;3.95;0.93;;;;;;;1.34;43.35;100404.56;5050302;28;20132;-54
2022/11/15 02:02:32;;;;;;;2.80;0.90;;;;;;;1.33;43.29;100409.00;5035266;28;20044;-50
2022/11/15 02:04:58;;;;;;;2.90;0.93;;;;;;;1.33;43.17;100406.34;5032208;28;20037;-54
2022/11/15 02:07:24;;;;;;;1.45;0.88;;;;;;;1.29;43.47;100402.94;5032191;28;20368;-54
2022/11/15 02:09:50;;;;;;;2.55;0.90;;;;;;;1.30;43.20;100403.78;5031184;28;20132;-54
2022/11/15 02:12:19;;;;;;;2.78;0.70;;;;;;;1.25;43.50;100401.31;5032176;28;20108;-52
2022/11/15 02:14:49;;;;;;;2.25;0.82;;;;;;;1.08;43.16;100367.56;5032420;28;20166;-51
2022/11/15 02:17:31;;;;;;;4.25;0.90;;;;;;;1.25;43.47;100396.03;5049583;28;20461;-50
2022/11/15 02:20:36;;;;;;;1.50;0.73;;;;;;;1.26;43.80;100391.63;5032251;28;20025;-50
2022/11/15 02:23:28;;;;;;;4.43;1.00;;;;;;;1.29;43.24;100387.09;5051794;28;20440;-53
2022/11/15 02:26:41;;;;;;;2.60;0.77;;;;;;;1.35;43.29;100385.16;5051155;28;20102;-54
2022/11/15 02:30:05;;;;;;;6.43;0.90;;;;;;;1.38;43.32;100395.63;5051250;28;20102;-51
2022/11/15 02:32:44;;;;;;;2.22;0.90;;;;;;;1.28;43.00;100390.66;5049813;28;20444;-47
2022/11/15 02:35:27;;;;;;;3.50;0.93;;;;;;;1.25;43.34;100382.84;5047177;28;20029;-52
2022/11/15 02:37:58;;;;;;;2.88;0.80;;;;;;;1.21;43.05;100393.53;5030088;28;20376;-50
2022/11/15 02:40:41;;;;;;;1.88;0.50;;;;;;;1.23;42.83;100387.31;5049801;28;20407;-52
2022/11/15 02:46:09;;;;;;;3.22;0.80;;;;;;;1.13;43.12;100381.47;5030097;28;20069;-54
2022/11/15 02:48:35;;;;;;;3.42;0.80;;;;;;;1.07;43.21;100379.00;5029778;28;20091;-52
2022/11/15 02:51:02;;;;;;;1.95;0.60;;;;;;;1.09;42.86;100382.50;5029735;28;20048;-48
2022/11/15 02:53:28;;;;;;;3.13;0.80;;;;;;;0.93;43.06;100344.34;5029983;28;20373;-49
2022/11/15 02:55:56;;;;;;;4.10;0.60;;;;;;;1.11;42.95;100369.25;5043914;28;20040;-54
2022/11/15 02:58:36;;;;;;;2.05;0.60;;;;;;;1.11;43.15;100363.97;5051495;28;20135;-52
2022/11/15 03:01:19;;;;;;;3.60;0.45;;;;;;;1.13;43.10;100365.66;5051858;28;20051;-51
2022/11/15 03:04:03;;;;;;;3.00;0.68;;;;;;;1.10;42.87;100372.78;5035296;28;20049;-50
2022/11/15 03:07:06;;;;;;;1.88;0.52;;;;;;;1.09;42.95;100358.75;5035483;28;20045;-53
2022/11/15 03:09:42;;;;;;;2.83;0.70;;;;;;;1.09;43.25;100358.75;5034748;28;20036;-50
2022/11/15 03:12:27;;;;;;;2.70;0.68;;;;;;;1.09;43.19;100364.03;5035487;28;20077;-51
2022/11/15 03:15:09;;;;;;;2.45;0.82;;;;;;;1.09;43.24;100355.25;5046873;28;20025;-49
2022/11/15 03:17:46;;;;;;;3.40;0.65;;;;;;;1.06;43.68;100337.72;5054853;28;20433;-53
2022/11/15 03:20:16;;;;;;;2.47;0.68;;;;;;;1.06;43.41;100342.16;5055235;28;20095;-56
2022/11/15 03:22:45;;;;;;;3.75;0.80;;;;;;;1.10;43.32;100347.28;5035635;28;20033;-47
2022/11/15 03:25:17;;;;;;;3.33;1.05;;;;;;;1.07;43.72;100343.88;5044359;28;20029;-50
2022/11/15 03:27:50;;;;;;;5.50;1.20;;;;;;;0.92;44.02;100326.78;5055071;28;20048;-57
2022/11/15 03:30:16;;;;;;;5.10;1.08;;;;;;;1.04;43.68;100354.53;5054765;28;20060;-54
2022/11/15 03:32:51;;;;;;;4.82;1.00;;;;;;;0.99;43.79;100347.66;5053558;28;20347;-52
2022/11/15 03:35:30;;;;;;;2.25;1.10;;;;;;;1.05;43.35;100348.34;5034911;28;20095;-52
2022/11/15 03:38:18;;;;;;;4.20;1.00;;;;;;;1.00;43.24;100353.78;5034572;28;20101;-50
2022/11/15 03:41:03;;;;;;;3.58;0.75;;;;;;;1.09;43.23;100353.47;5042298;28;20064;-59
2022/11/15 03:43:29;;;;;;;4.45;1.25;;;;;;;1.03;43.32;100353.66;5054298;28;20057;-51
2022/11/15 03:46:11;;;;;;;4.93;1.00;;;;;;;1.07;43.37;100352.66;5042681;28;20462;-50
2022/11/15 03:48:43;;;;;;;4.90;1.30;;;;;;;1.00;43.66;100337.94;5043248;28;20083;-51
2022/11/15 03:51:10;;;;;;;6.18;1.25;;;;;;;1.05;43.44;100351.00;5046632;28;20447;-48
2022/11/15 03:53:35;;;;;;;6.97;1.27;;;;;;;1.05;43.34;100356.25;5053125;28;20036;-49
2022/11/15 03:56:01;;;;;;;2.30;1.02;;;;;;;1.06;43.76;100342.16;5054102;28;20440;-49
2022/11/15 03:58:26;;;;;;;6.25;1.30;;;;;;;1.04;43.58;100336.09;5053271;28;20032;-66
2022/11/15 04:00:52;;;;;;;3.92;1.02;;;;;;;0.97;43.62;100327.50;5038713;28;20029;-49
2022/11/15 04:03:17;;;;;;;5.28;1.40;;;;;;;1.03;43.38;100335.19;5033544;28;20049;-51
2022/11/15 04:05:43;;;;;;;6.25;1.17;;;;;;;1.03;43.36;100343.13;5034486;28;20047;-50
2022/11/15 04:08:08;;;;;;;5.32;1.10;;;;;;;1.04;43.32;100341.34;5033587;28;20034;-49
2022/11/15 04:10:34;;;;;;;2.88;1.17;;;;;;;1.04;43.12;100336.09;5034938;28;20128;-47
2022/11/15 04:13:02;;;;;;;2.97;1.25;;;;;;;1.03;43.49;100334.34;5034004;28;20100;-49
2022/11/15 04:15:28;;;;;;;6.07;1.35;;;;;;;0.84;43.61;100316.50;5034000;28;20037;-54
2022/11/15 04:17:56;;;;;;;7.75;1.83;;;;;;;0.90;44.22;100321.56;5033749;28;20440;-46
2022/11/15 04:26:12;;;;;;;6.47;1.20;;;;;;;0.96;43.87;100325.78;5033588;28;20033;-56
2022/11/15 04:31:22;;;;;;;8.00;1.63;;;;;;;0.92;43.42;100327.66;5033687;28;20037;-57
2022/11/15 04:33:47;;;;;;;5.13;1.20;;;;;;;0.96;43.18;100326.63;5042983;28;20036;-55
2022/11/15 04:38:57;;;;;;;5.43;1.10;;;;;;;0.97;43.46;100319.59;5033602;28;20372;-52
2022/11/15 04:41:23;;;;;;;4.10;1.20;;;;;;;0.95;43.81;100319.63;5036184;28;20441;-54
2022/11/15 04:43:48;;;;;;;6.18;1.20;;;;;;;0.90;43.57;100318.06;5052667;28;20053;-52
2022/11/15 04:46:14;;;;;;;2.78;0.95;;;;;;;0.84;43.84;100317.38;5040401;28;20337;-53
2022/11/15 04:48:39;;;;;;;5.35;1.10;;;;;;;0.76;43.70;100300.91;5037345;28;20036;-54
2022/11/15 04:51:04;;;;;;;5.05;1.00;;;;;;;0.85;43.54;100310.31;5053244;28;20029;-56
2022/11/15 04:53:30;;;;;;;7.80;1.20;;;;;;;0.83;43.62;100299.81;5053029;28;20029;-53
2022/11/15 04:55:55;;;;;;;5.60;1.30;;;;;;;0.89;43.90;100308.44;5051188;28;20098;-54
2022/11/15 04:58:20;;;;;;;5.28;1.10;;;;;;;0.87;43.62;100311.13;5037200;28;20534;-57
2022/11/15 05:00:46;;;;;;;8.30;1.52;;;;;;;0.89;43.22;100304.03;5051820;28;20035;-52
2022/11/15 05:05:57;;;;;;;5.85;1.55;;;;;;;0.80;43.41;100296.41;5052790;28;20557;-53
2022/11/15 05:08:22;;;;;;;6.00;1.50;;;;;;;0.85;43.54;100305.91;5044743;28;20033;-55
2022/11/15 05:10:48;;;;;;;4.25;1.52;;;;;;;0.84;43.50;100309.47;5035834;28;20039;-54
2022/11/15 05:13:13;;;;;;;5.38;1.30;;;;;;;0.85;43.74;100299.75;5051463;28;20025;-50
2022/11/15 05:15:39;;;;;;;4.22;1.45;;;;;;;0.87;43.79;100300.56;5052628;28;20348;-52
2022/11/15 05:18:04;;;;;;;7.32;2.28;;;;;;;0.87;43.80;100299.72;5052793;28;20112;-51
2022/11/15 05:20:30;;;;;;;6.18;1.50;;;;;;;0.90;44.20;100302.25;5050301;28;20021;-52
2022/11/15 05:22:55;;;;;;;7.93;1.20;;;;;;;0.92;44.18;100309.19;5052379;28;20032;-50
2022/11/15 05:25:22;;;;;;;7.28;1.50;;;;;;;0.94;43.84;100303.88;5050704;28;20107;-54
2022/11/15 05:27:47;;;;;;;4.70;1.58;;;;;;;0.96;43.64;100294.13;5033104;28;20054;-55
2022/11/15 05:30:14;;;;;;;3.47;1.27;;;;;;;0.99;43.77;100299.31;5032579;28;20076;-55
2022/11/15 05:32:39;;;;;;;3.78;1.30;;;;;;;1.02;44.11;100287.81;5032563;28;20053;-50
2022/11/15 05:35:09;;;;;;;4.55;1.77;;;;;;;1.05;43.98;100287.69;5032505;28;20077;-55
2022/11/15 05:37:34;;;;;;;7.80;1.70;;;;;;;1.08;43.69;100280.53;5032312;28;20443;-52
2022/11/15 05:39:59;;;;;;;4.93;1.40;;;;;;;1.11;43.94;100282.22;5032921;28;20090;-52
2022/11/15 05:42:26;;;;;;;8.00;1.35;;;;;;;0.96;43.61;100257.22;5032665;28;20060;-52
2022/11/15 05:44:53;;;;;;;4.28;1.27;;;;;;;1.19;43.64;100295.13;5034928;28;20309;-54
2022/11/15 05:47:26;;;;;;;5.65;1.80;;;;;;;1.22;43.61;100277.44;5051763;28;20032;-53
2022/11/15 05:49:53;;;;;;;10.00;1.27;;;;;;;1.27;43.17;100288.69;5052027;28;20040;-53
2022/11/15 05:52:24;;;;;;;5.55;1.95;;;;;;;1.29;43.55;100283.34;5052212;28;20039;-52
2022/11/15 05:54:50;;;;;;;8.18;1.65;;;;;;;1.29;43.32;100273.66;5050845;28;20041;-51
2022/11/15 05:57:16;;;;;;;8.88;1.40;;;;;;;1.33;43.18;100273.56;5032109;28;20044;-51
2022/11/15 06:00:00;;;;;;;14.02;1.98;;;;;;;1.36;43.20;100281.34;5033165;28;20033;-66
2022/11/15 06:02:26;;;;;;;3.08;1.30;;;;;;;1.43;43.13;100277.59;5042690;28;20448;-62
2022/11/15 06:04:51;;;;;;;5.38;1.52;;;;;;;1.40;43.16;100262.75;5040227;28;20036;-55
2022/11/15 06:07:17;;;;;;;3.63;1.45;;;;;;;1.45;42.96;100275.78;5036778;28;20037;-51
2022/11/15 06:09:42;;;;;;;6.35;1.25;;;;;;;1.45;43.18;100274.91;5032417;28;20040;-55
2022/11/15 06:12:08;;;;;;;6.68;1.30;;;;;;;1.43;43.11;100267.91;5032369;28;20022;-55
2022/11/15 06:14:33;;;;;;;4.65;1.27;;;;;;;1.45;43.06;100267.00;5032052;28;20411;-53
2022/11/15 06:16:58;;;;;;;6.60;1.80;;;;;;;1.52;42.74;100272.00;5031975;28;20056;-52
2022/11/15 06:19:24;;;;;;;3.67;1.40;;;;;;;1.58;42.86;100261.22;5032393;28;20026;-55
2022/11/15 06:21:49;;;;;;;6.50;1.35;;;;;;;1.56;42.54;100257.78;5032193;28;20026;-53
2022/11/15 06:24:15;;;;;;;4.38;1.50;;;;;;;1.64;42.39;100261.91;5031952;28;20072;-51
2022/11/15 06:26:40;;;;;;;5.97;1.42;;;;;;;1.66;42.77;100260.06;5036070;28;20102;-53
2022/11/15 06:29:05;;;;;;;6.35;1.58;;;;;;;1.66;42.60;100263.56;5051472;28;20037;-52
2022/11/15 06:31:31;;;;;;;6.13;1.60;;;;;;;1.62;42.41;100248.78;5050683;28;20493;-53
2022/11/15 06:33:56;;;;;;;10.82;1.77;;;;;;;1.66;42.57;100247.75;5034669;28;20041;-54
2022/11/15 06:36:22;;;;;;;4.00;1.60;;;;;;;1.64;42.24;100248.69;5036301;28;20029;-51
2022/11/15 06:38:47;;;;;;;8.85;1.63;;;;;;;1.63;42.99;100246.97;5035353;28;20021;-55
2022/11/15 06:41:14;;;;;;;5.45;1.70;;;;;;;1.61;42.77;100244.41;5037675;28;20141;-53
2022/11/15 06:43:40;;;;;;;4.18;1.70;;;;;;;1.57;43.10;100246.28;5055655;28;20056;-53
2022/11/15 06:46:06;;;;;;;8.40;1.70;;;;;;;1.61;43.00;100239.13;5052623;28;20040;-55
2022/11/15 06:48:33;;;;;;;5.38;1.35;;;;;;;1.63;42.52;100245.22;5054246;28;20867;-58
2022/11/15 06:51:00;;;;;;;7.30;1.50;;;;;;;1.69;42.70;100246.78;5051896;28;20041;-53
2022/11/15 06:53:26;;;;;;;10.52;1.60;;;;;;;1.72;42.78;100233.47;5054828;28;20066;-54
2022/11/15 06:55:52;;;;;;;7.40;1.77;;;;;;;1.75;42.51;100233.34;5055007;28;20107;-60
2022/11/15 06:58:17;;;;;;;6.65;1.63;;;;;;;1.79;42.29;100234.06;5055319;28;20052;-61
2022/11/15 07:00:43;;;;;;;6.80;2.08;;;;;;;1.83;42.71;100223.34;5054003;28;20032;-57
2022/11/15 07:03:09;;;;;;;6.60;1.80;;;;;;;1.90;42.34;100223.97;5055177;28;20033;-59
2022/11/15 07:05:35;;;;;;;6.18;1.48;;;;;;;1.93;42.19;100229.13;5055050;28;20178;-57
2022/11/15 07:08:00;;;;;;;5.60;1.50;;;;;;;1.92;42.22;100219.50;5054928;28;20063;-56
2022/11/15 07:10:27;;;;;;;6.25;1.70;;;;;;;1.92;42.54;100213.34;5054080;28;20041;-55
2022/11/15 07:12:53;;;;;;;7.00;2.10;;;;;;;2.08;42.08;100211.81;5050964;28;20044;-63
2022/11/15 07:15:21;;;;;;;5.68;1.50;;;;;;;2.17;41.63;100215.91;5038391;28;20036;-53
2022/11/15 07:17:46;;;;;;;5.63;1.60;;;;;;;2.26;41.70;100209.38;5047022;28;20075;-50
2022/11/15 07:20:13;;;;;;;8.40;1.60;;;;;;;2.36;41.57;100207.25;5034853;28;20060;-55
2022/11/15 07:22:39;;;;;;;10.70;2.00;;;;;;;2.47;41.18;100209.44;5050729;28;20112;-54
2022/11/15 07:25:05;;;;;;;6.03;1.90;;;;;;;2.51;41.22;100203.09;5038111;28;20041;-56
2022/11/15 07:27:30;;;;;;;7.18;1.95;;;;;;;2.56;41.34;100196.72;5054776;28;20037;-54
2022/11/15 07:29:56;;;;;;;6.97;2.50;;;;;;;2.57;41.04;100197.56;5045466;28;20148;-60
2022/11/15 07:32:21;;;;;;;8.20;1.73;;;;;;;2.36;41.21;100173.72;5033051;28;20041;-58
2022/11/15 07:34:47;;;;;;;11.13;2.50;;;;;;;2.50;40.94;100186.38;5035310;28;20106;-57
2022/11/15 07:37:12;;;;;;;11.40;2.15;;;;;;;2.52;40.93;100191.63;5054521;28;20446;-53
2022/11/15 07:39:38;;;;;;;6.40;2.10;;;;;;;2.45;41.10;100191.00;5052571;28;20032;-67
2022/11/15 07:44:47;;;;;;;10.70;1.85;;;;;;;2.42;41.29;100177.91;5033788;28;20445;-56
2022/11/15 07:47:12;;;;;;;5.38;1.70;;;;;;;2.43;40.68;100169.94;5034895;28;20049;-60
2022/11/15 07:49:38;;;;;;;7.00;2.30;;;;;;;2.20;41.00;100146.25;5034684;28;20110;-53
2022/11/15 07:52:04;;;;;;;7.18;2.00;;;;;;;2.31;41.24;100175.72;5034236;28;20025;-53
2022/11/15 07:54:29;;;;;;;5.90;1.73;;;;;;;2.07;41.48;100138.78;5034564;28;20103;-57
2022/11/15 07:56:54;;;;;;;8.00;1.90;;;;;;;2.21;41.57;100169.09;5047729;28;20089;-54
2022/11/15 07:59:20;;;;;;;6.85;2.20;;;;;;;2.12;41.53;100167.69;5053480;28;20025;-60
2022/11/15 08:01:45;;;;;;;7.68;2.00;;;;;;;2.09;41.50;100176.56;5043563;28;20021;-57
2022/11/15 08:04:11;;;;;;;7.10;2.08;;;;;;;2.11;41.51;100177.38;5034220;28;20063;-59
2022/11/15 08:06:37;;;;;;;7.35;1.90;;;;;;;2.10;41.43;100162.44;5041380;28;20033;-57
2022/11/15 08:09:03;;;;;;;10.13;1.90;;;;;;;1.89;41.55;100135.13;5051711;28;20483;-58
2022/11/15 08:11:28;;;;;;;7.65;2.30;;;;;;;2.04;41.80;100170.63;5053814;28;20550;-56
2022/11/15 08:13:53;;;;;;;5.13;1.60;;;;;;;2.04;41.60;100164.47;5044547;28;20454;-56
2022/11/15 08:16:19;;;;;;;10.82;2.35;;;;;;;2.02;41.52;100167.19;5033829;28;20030;-60
2022/11/15 08:18:45;;;;;;;5.25;1.67;;;;;;;2.10;40.82;100165.09;5033290;28;20040;-55
2022/11/15 08:21:14;;;;;;;10.90;2.30;;;;;;;2.15;41.31;100164.91;5033693;28;20033;-69
2022/11/15 08:23:39;;;;;;;6.53;1.73;;;;;;;2.20;41.28;100154.16;5015956;28;20025;-58
2022/11/15 08:26:05;;;;;;;8.27;2.65;;;;;;;2.22;41.16;100155.81;5044689;28;20031;-58
2022/11/15 08:28:32;;;;;;;8.85;2.00;;;;;;;2.30;41.35;100152.84;5044609;28;20337;-63
2022/11/15 08:30:57;;;;;;;7.07;2.42;;;;;;;2.39;40.87;100148.97;5043709;28;20025;-60
2022/11/15 08:33:24;;;;;;;10.13;2.55;;;;;;;2.47;40.51;100156.59;5042332;28;20025;-54
2022/11/15 08:35:49;;;;;;;6.90;2.53;;;;;;;2.54;41.12;100150.13;5043326;28;20052;-58
2022/11/15 08:38:15;;;;;;;10.57;2.47;;;;;;;2.65;40.84;100152.31;5041351;28;20436;-58
2022/11/15 08:40:40;;;;;;;8.65;2.10;;;;;;;2.72;40.85;100137.88;5042966;28;20045;-57
2022/11/15 08:43:06;;;;;;;10.60;2.38;;;;;;;2.81;40.70;100144.56;5037367;28;20049;-58
2022/11/15 08:45:34;;;;;;;7.07;2.40;;;;;;;2.91;40.66;100129.16;5044165;28;20048;-58
2022/11/15 08:48:02;;;;;;;12.70;2.28;;;;;;;3.01;40.39;100126.03;5041804;28;20025;-59
2022/11/15 08:50:27;;;;;;;9.98;2.50;;;;;;;3.15;39.64;100124.59;5042234;28;20087;-58
2022/11/15 08:52:54;;;;;;;6.70;2.70;;;;;;;3.33;39.33;100128.19;5042613;28;20371;-55
2022/11/15 08:55:19;;;;;;;11.20;2.67;;;;;;;3.28;39.59;100106.38;5040257;28;20060;-57
2022/11/15 08:57:45;;;;;;;7.85;3.15;;;;;;;3.51;39.05;100136.22;5042467;28;20051;-56
2022/11/15 09:00:12;;;;;;;12.85;2.30;;;;;;;3.56;38.89;100119.16;5043847;28;20108;-55
2022/11/15 09:02:38;;;;;;;12.48;2.45;;;;;;;3.65;39.11;100130.28;5041242;28;20207;-59
2022/11/15 09:05:05;;;;;;;13.68;2.55;;;;;;;3.64;39.52;100126.75;5051271;28;20036;-58
2022/11/15 09:07:31;;;;;;;17.17;3.13;;;;;;;3.61;39.21;100126.03;5052391;28;20352;-63
2022/11/15 09:09:57;;;;;;;6.88;2.92;;;;;;;3.50;39.08;100121.25;5053058;28;20039;-58
2022/11/15 09:12:23;;;;;;;10.77;2.80;;;;;;;3.43;39.29;100118.03;5052785;28;20037;-60
2022/11/15 09:14:49;;;;;;;11.02;2.80;;;;;;;3.35;39.58;100114.84;5052532;28;20119;-59
2022/11/15 09:17:14;;;;;;;9.07;2.47;;;;;;;3.14;39.67;100080.53;5045185;28;20029;-57
2022/11/15 09:19:39;;;;;;;10.55;3.42;;;;;;;3.16;39.57;100102.50;5032867;28;20021;-56
2022/11/15 09:22:06;;;;;;;9.27;3.85;;;;;;;3.08;40.28;100104.59;5032788;28;20044;-57
2022/11/15 09:24:32;;;;;;;15.57;3.72;;;;;;;3.04;40.01;100103.03;5032489;28;20349;-61
2022/11/15 09:26:57;;;;;;;12.52;3.22;;;;;;;2.84;40.19;100073.03;5032859;28;20025;-57
2022/11/15 09:29:23;;;;;;;16.70;3.50;;;;;;;2.92;40.20;100099.16;5032516;28;20044;-54
2022/11/15 09:31:48;;;;;;;11.95;3.63;;;;;;;2.86;40.93;100094.97;5034112;28;20057;-57
2022/11/15 09:34:13;;;;;;;8.27;3.00;;;;;;;2.71;40.50;100076.22;5052543;28;20040;-57
2022/11/15 09:36:39;;;;;;;12.90;3.25;;;;;;;2.78;40.80;100094.47;5051853;28;20029;-60
2022/11/15 09:39:04;;;;;;;7.55;3.28;;;;;;;2.79;40.77;100085.59;5052111;28;20056;-57
2022/11/15 09:41:42;;;;;;;7.50;2.78;;;;;;;2.78;40.99;100082.13;5051369;28;20087;-58
2022/11/15 09:44:31;;;;;;;8.73;2.95;;;;;;;2.71;40.88;100056.84;5052066;28;20131;-57
2022/11/15 09:47:18;;;;;;;9.43;3.05;;;;;;;2.87;41.10;100083.47;5047307;28;20037;-56
2022/11/15 09:49:43;;;;;;;11.90;2.83;;;;;;;2.84;41.07;100091.53;5032328;28;20207;-56
2022/11/15 09:52:10;;;;;;;7.53;3.38;;;;;;;2.87;41.05;100086.13;5032225;28;20405;-57
2022/11/15 09:54:45;;;;;;;11.85;3.10;;;;;;;2.90;40.85;100082.50;5032019;28;20364;-56
2022/11/15 09:57:41;;;;;;;9.88;3.35;;;;;;;2.96;41.02;100085.72;5031893;28;20098;-56
2022/11/15 10:00:20;;;;;;;9.27;2.78;;;;;;;2.99;41.12;100080.28;5032291;28;20067;-56
2022/11/15 10:03:07;;;;;;;11.27;2.85;;;;;;;2.92;40.85;100081.50;5031872;28;20104;-59
2022/11/15 10:05:38;;;;;;;7.60;3.03;;;;;;;2.86;40.53;100074.69;5032250;28;20444;-57
2022/11/15 10:08:22;;;;;;;8.93;3.20;;;;;;;2.80;40.38;100082.91;5035407;28;20029;-64
2022/11/15 10:10:52;;;;;;;8.25;2.60;;;;;;;2.80;41.32;100077.63;5035021;28;20039;-56
2022/11/15 10:13:25;;;;;;;10.07;2.72;;;;;;;2.73;40.97;100066.44;5036071;28;20036;-59
2022/11/15 10:15:53;;;;;;;6.53;2.70;;;;;;;2.70;41.36;100066.59;5035224;28;20123;-59
2022/11/15 10:18:35;;;;;;;12.35;2.92;;;;;;;2.72;41.16;100058.56;5048818;28;20025;-54
2022/11/15 10:21:19;;;;;;;13.63;3.17;;;;;;;2.69;41.37;100051.66;5056009;28;20052;-57
2022/11/15 10:23:45;;;;;;;8.10;2.63;;;;;;;2.55;41.94;100038.19;5055762;28;20124;-60
2022/11/15 10:26:15;;;;;;;11.88;3.05;;;;;;;2.35;41.96;100002.91;5055011;28;20116;-53
2022/11/15 10:28:41;;;;;;;5.07;2.55;;;;;;;2.60;41.73;100036.19;5055797;28;20021;-56
2022/11/15 10:31:25;;;;;;;9.45;2.50;;;;;;;2.69;41.96;100032.28;5055754;28;20029;-56
2022/11/15 10:33:57;;;;;;;10.32;2.75;;;;;;;2.62;41.77;100029.03;5042130;28;20040;-56
2022/11/15 10:36:26;;;;;;;11.68;2.95;;;;;;;2.57;41.94;100028.38;5045069;28;20175;-59
2022/11/15 10:38:54;;;;;;;10.88;2.75;;;;;;;2.47;42.04;100017.34;5055275;28;20025;-61
2022/11/15 10:41:21;;;;;;;10.07;2.60;;;;;;;2.52;42.37;100011.88;5055461;28;20035;-56
2022/11/15 10:44:08;;;;;;;11.23;2.95;;;;;;;2.62;42.04;100017.63;5055286;28;20125;-57
2022/11/15 10:46:36;;;;;;;7.15;2.92;;;;;;;2.51;42.16;100013.66;5053270;28;20037;-56
2022/11/15 10:49:19;;;;;;;7.45;2.70;;;;;;;2.53;42.58;100017.13;5035786;28;20052;-60
2022/11/15 10:51:49;;;;;;;6.38;2.85;;;;;;;2.44;42.40;100010.44;5035606;28;20045;-55
2022/11/15 10:54:24;;;;;;;12.20;3.05;;;;;;;2.43;42.23;100006.09;5035457;28;20128;-56
2022/11/15 10:56:53;;;;;;;11.88;2.83;;;;;;;2.32;42.55;99987.19;5046292;28;20483;-58
2022/11/15 10:59:31;;;;;;;15.15;2.83;;;;;;;2.47;42.46;100000.66;5035128;28;20835;-58
2022/11/15 11:01:57;;;;;;;6.53;2.35;;;;;;;2.39;42.41;100001.00;5038872;28;20724;-59
2022/11/15 11:04:23;;;;;;;9.43;2.47;;;;;;;2.36;42.54;99994.03;5053246;28;20037;-55
2022/11/15 11:06:59;;;;;;;8.23;2.70;;;;;;;2.31;42.99;99977.53;5052052;28;20029;-57
2022/11/15 11:09:43;;;;;;;9.60;2.92;;;;;;;2.31;42.94;99980.19;5035862;28;20041;-56
2022/11/15 11:12:11;;;;;;;8.55;2.90;;;;;;;2.28;42.84;99983.81;5035049;28;20095;-56
2022/11/15 11:14:38;;;;;;;10.23;2.90;;;;;;;2.32;42.67;99986.34;5051138;28;20447;-65
2022/11/15 11:17:26;;;;;;;7.65;2.80;;;;;;;2.41;42.74;99983.28;5049800;28;20034;-55
2022/11/15 11:20:28;;;;;;;13.77;3.10;;;;;;;2.43;42.65;99984.94;5033688;28;20040;-57
2022/11/15 11:23:15;;;;;;;11.18;3.17;;;;;;;2.38;42.85;99981.63;5035127;28;20041;-57
2022/11/15 11:25:54;;;;;;;9.38;2.70;;;;;;;2.39;43.08;99978.06;5034547;28;20116;-55
2022/11/15 11:28:52;;;;;;;8.73;2.80;;;;;;;2.50;42.76;99968.81;5049508;28;20037;-56
2022/11/15 11:31:47;;;;;;;7.47;2.88;;;;;;;2.57;42.85;99975.53;5054308;28;20053;-58
2022/11/15 11:34:18;;;;;;;15.27;3.20;;;;;;;2.64;42.62;99966.38;5034426;28;20348;-53
2022/11/15 11:36:57;;;;;;;9.68;3.20;;;;;;;2.66;43.19;99953.09;5035434;28;20381;-54
2022/11/15 11:39:35;;;;;;;8.02;3.40;;;;;;;2.77;42.71;99960.53;5034397;28;20090;-55
2022/11/15 11:42:17;;;;;;;9.32;3.40;;;;;;;2.70;43.02;99952.91;5046258;28;20084;-52
2022/11/15 11:45:03;;;;;;;11.13;3.20;;;;;;;2.69;42.67;99953.84;5034526;28;20115;-58
2022/11/15 11:47:33;;;;;;;9.45;3.20;;;;;;;2.57;43.23;99952.59;5046595;28;20116;-60
2022/11/15 11:50:20;;;;;;;11.25;3.45;;;;;;;2.57;44.20;99951.72;5044413;28;20033;-56
2022/11/15 11:52:57;;;;;;;14.85;3.42;;;;;;;2.48;44.32;99952.16;5045240;28;20025;-54
2022/11/15 11:55:30;;;;;;;16.52;3.67;;;;;;;2.41;45.41;99956.84;5054431;28;20378;-62
2022/11/15 11:58:34;;;;;;;11.10;3.88;;;;;;;2.43;45.80;99955.88;5037594;28;20029;-64
2022/11/15 12:01:15;;;;;;;13.60;3.50;;;;;;;2.37;46.01;99944.72;5034309;28;20136;-62
2022/11/15 12:04:05;;;;;;;11.65;3.20;;;;;;;2.01;46.78;99920.69;5052488;28;20051;-61